createdAt,value
2022-11-22T00:00:28.030Z,4.13
2022-11-22T00:02:55.235Z,5.40
2022-11-22T00:05:22.130Z,5.00
2022-11-22T00:07:49.104Z,4.73
2022-11-22T00:10:16.468Z,4.97
2022-11-22T00:12:43.781Z,4.80
2022-11-22T00:15:11.259Z,4.17
2022-11-22T00:17:38.855Z,4.70
2022-11-22T00:20:08.137Z,4.23
2022-11-22T00:22:39.710Z,4.57
2022-11-22T00:25:09.926Z,4.60
2022-11-22T00:27:36.738Z,4.97
2022-11-22T00:30:04.095Z,4.20
2022-11-22T00:32:30.938Z,4.30
2022-11-22T00:34:57.747Z,4.30
2022-11-22T00:37:24.628Z,4.50
2022-11-22T00:39:51.618Z,4.30
2022-11-22T00:42:18.715Z,4.50
2022-11-22T00:44:45.558Z,4.70
2022-11-22T00:47:12.367Z,4.60
2022-11-22T00:49:39.183Z,4.67
2022-11-22T00:52:06.319Z,4.20
2022-11-22T00:54:33.124Z,4.80
2022-11-22T00:57:00.007Z,4.30
2022-11-22T00:59:27.172Z,4.40
2022-11-22T01:01:54.367Z,4.40
2022-11-22T01:04:21.299Z,3.80
2022-11-22T01:06:48.075Z,4.20
2022-11-22T01:09:22.003Z,4.00
2022-11-22T01:11:49.591Z,4.40
2022-11-22T01:14:17.435Z,4.90
2022-11-22T01:16:44.900Z,4.43
2022-11-22T01:19:12.194Z,4.00
2022-11-22T01:21:39.710Z,3.87
2022-11-22T01:24:06.858Z,4.40
2022-11-22T01:26:34.895Z,3.50
2022-11-22T01:29:01.701Z,4.40
2022-11-22T01:31:30.074Z,4.47
2022-11-22T01:33:57.949Z,4.23
2022-11-22T01:36:25.342Z,3.70
2022-11-22T01:38:52.645Z,4.13
2022-11-22T01:41:19.498Z,4.03
2022-11-22T01:43:46.404Z,4.33
2022-11-22T01:46:37.102Z,4.10
2022-11-22T01:49:19.554Z,4.17
2022-11-22T01:51:51.753Z,3.87
2022-11-22T01:54:22.667Z,4.10
2022-11-22T01:56:54.280Z,4.03
2022-11-22T01:59:24.934Z,3.70
2022-11-22T02:01:53.023Z,4.07
2022-11-22T02:04:20.552Z,4.73
2022-11-22T02:06:53.808Z,3.73
2022-11-22T02:09:22.003Z,3.90
2022-11-22T02:11:51.694Z,4.20
2022-11-22T02:14:25.952Z,4.00
2022-11-22T02:16:52.830Z,4.03
2022-11-22T02:19:48.494Z,3.30
2022-11-22T02:22:33.778Z,3.93
2022-11-22T02:25:23.231Z,3.77
2022-11-22T02:27:50.695Z,3.63
2022-11-22T02:30:17.983Z,3.40
2022-11-22T02:32:45.038Z,4.00
2022-11-22T02:35:24.189Z,4.07
2022-11-22T02:37:56.447Z,3.17
2022-11-22T02:40:24.262Z,3.30
2022-11-22T02:42:58.836Z,3.43
2022-11-22T02:45:25.801Z,3.70
2022-11-22T02:47:52.556Z,2.70
2022-11-22T02:50:19.438Z,2.93
2022-11-22T02:52:46.271Z,3.07
2022-11-22T02:55:13.087Z,3.63
2022-11-22T02:57:39.890Z,3.10
2022-11-22T03:00:07.423Z,3.73
2022-11-22T03:02:34.483Z,3.90
2022-11-22T03:05:01.293Z,2.97
2022-11-22T03:07:28.081Z,3.77
2022-11-22T03:09:54.890Z,3.70
2022-11-22T03:12:21.639Z,3.40
2022-11-22T03:14:48.435Z,3.90
2022-11-22T03:17:16.058Z,3.33
2022-11-22T03:19:42.874Z,3.50
2022-11-22T03:22:11.470Z,3.20
2022-11-22T03:24:38.569Z,3.40
2022-11-22T03:27:05.452Z,3.60
2022-11-22T03:29:32.525Z,3.37
2022-11-22T03:31:59.547Z,3.17
2022-11-22T03:34:26.519Z,3.50
2022-11-22T03:36:53.334Z,3.10
2022-11-22T03:39:20.153Z,3.67
2022-11-22T03:41:46.945Z,3.27
2022-11-22T03:44:13.708Z,3.50
2022-11-22T03:46:40.974Z,3.10
2022-11-22T03:49:07.790Z,3.37
2022-11-22T03:51:34.586Z,3.27
2022-11-22T03:54:01.414Z,3.27
2022-11-22T03:56:28.370Z,3.57
2022-11-22T03:58:55.128Z,2.70
2022-11-22T04:01:21.948Z,3.00
2022-11-22T04:03:48.836Z,3.80
2022-11-22T04:06:15.630Z,3.37
2022-11-22T04:08:42.532Z,3.47
2022-11-22T04:11:09.366Z,3.17
2022-11-22T04:13:54.636Z,3.70
2022-11-22T04:16:21.405Z,3.50
2022-11-22T04:18:48.210Z,2.80
2022-11-22T04:21:33.687Z,3.70
2022-11-22T04:24:26.231Z,3.17
2022-11-22T04:26:53.778Z,3.30
2022-11-22T04:29:21.565Z,3.33
2022-11-22T04:32:08.255Z,3.43
2022-11-22T04:34:35.605Z,3.83
2022-11-22T04:37:03.425Z,3.17
2022-11-22T04:39:30.297Z,3.57
2022-11-22T04:42:16.802Z,3.40
2022-11-22T04:44:44.598Z,3.13
2022-11-22T04:47:13.314Z,3.37
2022-11-22T04:49:40.118Z,3.50
2022-11-22T04:52:25.431Z,3.20
2022-11-22T04:54:52.163Z,3.40
2022-11-22T04:57:18.971Z,3.30
2022-11-22T04:59:45.794Z,3.57
2022-11-22T05:02:12.572Z,3.57
2022-11-22T05:04:39.326Z,3.80
2022-11-22T05:07:06.103Z,3.20
2022-11-22T05:09:32.936Z,2.87
2022-11-22T05:11:59.838Z,3.00
2022-11-22T05:14:26.632Z,2.63
2022-11-22T05:16:53.391Z,3.10
2022-11-22T05:19:20.444Z,2.87
2022-11-22T05:21:47.191Z,2.73
2022-11-22T05:24:14.007Z,2.43
2022-11-22T05:26:41.974Z,2.73
2022-11-22T05:29:10.863Z,2.93
2022-11-22T05:31:40.801Z,3.50
2022-11-22T05:34:07.698Z,3.40
2022-11-22T05:36:35.408Z,3.50
2022-11-22T05:39:02.698Z,3.20
2022-11-22T05:41:29.550Z,3.10
2022-11-22T05:43:58.057Z,3.10
2022-11-22T05:46:27.709Z,3.07
2022-11-22T05:48:56.567Z,3.57
2022-11-22T05:51:29.266Z,3.30
2022-11-22T05:54:00.678Z,3.13
2022-11-22T05:56:27.525Z,3.37
2022-11-22T05:58:54.811Z,3.60
2022-11-22T06:01:23.556Z,3.27
2022-11-22T06:03:51.241Z,3.60
2022-11-22T06:06:18.899Z,3.27
2022-11-22T06:08:48.010Z,3.33
2022-11-22T06:11:15.095Z,3.77
2022-11-22T06:13:44.350Z,3.37
2022-11-22T06:16:12.186Z,3.40
2022-11-22T06:18:39.444Z,3.70
2022-11-22T06:21:10.353Z,3.30
2022-11-22T06:23:37.174Z,3.20
2022-11-22T06:26:08.014Z,3.40
2022-11-22T06:28:37.190Z,3.47
2022-11-22T06:31:15.868Z,3.13
2022-11-22T06:33:43.566Z,3.50
2022-11-22T06:36:24.523Z,4.00
2022-11-22T06:38:52.399Z,3.40
2022-11-22T06:41:21.776Z,3.13
2022-11-22T06:43:50.110Z,3.47
2022-11-22T06:46:18.980Z,3.13
2022-11-22T06:48:46.691Z,3.87
2022-11-22T06:51:22.062Z,3.73
2022-11-22T06:53:50.005Z,3.07
2022-11-22T06:56:22.337Z,3.93
2022-11-22T06:58:50.537Z,3.10
2022-11-22T07:01:20.468Z,3.27
2022-11-22T07:03:48.282Z,3.40
2022-11-22T07:06:16.580Z,3.40
2022-11-22T07:08:44.018Z,3.13
2022-11-22T07:11:14.024Z,3.30
2022-11-22T07:13:41.893Z,2.73
2022-11-22T07:16:10.943Z,3.17
2022-11-22T07:18:37.824Z,3.33
2022-11-22T07:21:12.514Z,3.63
2022-11-22T07:23:41.550Z,3.70
2022-11-22T07:26:08.663Z,3.30
2022-11-22T07:28:35.858Z,3.07
2022-11-22T07:31:05.851Z,3.30
2022-11-22T07:33:33.018Z,3.20
2022-11-22T07:36:15.172Z,3.20
2022-11-22T07:38:41.957Z,3.57
2022-11-22T07:41:10.026Z,3.47
2022-11-22T07:43:37.155Z,3.40
2022-11-22T07:46:16.306Z,4.07
2022-11-22T07:48:43.098Z,3.37
2022-11-22T07:51:09.902Z,3.93
2022-11-22T07:53:36.810Z,4.17
2022-11-22T07:56:05.232Z,3.83
2022-11-22T07:58:32.672Z,4.17
2022-11-22T08:01:05.850Z,3.80
2022-11-22T08:03:32.719Z,4.20
2022-11-22T08:06:00.870Z,4.13
2022-11-22T08:08:28.000Z,3.53
2022-11-22T08:10:54.894Z,4.23
2022-11-22T08:13:21.902Z,3.97
2022-11-22T08:15:49.717Z,4.10
2022-11-22T08:18:17.036Z,4.20
2022-11-22T08:20:43.866Z,3.53
2022-11-22T08:23:10.904Z,3.80
2022-11-22T08:25:37.836Z,3.37
2022-11-22T08:28:04.754Z,3.63
2022-11-22T08:30:31.638Z,4.43
2022-11-22T08:32:58.718Z,4.20
2022-11-22T08:35:25.530Z,3.90
2022-11-22T08:37:56.560Z,3.70
2022-11-22T08:40:23.390Z,3.10
2022-11-22T08:42:53.103Z,4.07
2022-11-22T08:45:19.907Z,3.50
2022-11-22T08:47:47.144Z,3.87
2022-11-22T08:50:13.926Z,4.23
2022-11-22T08:52:40.810Z,4.10
2022-11-22T08:55:08.319Z,4.70
2022-11-22T08:57:35.102Z,3.97
2022-11-22T09:00:02.308Z,4.57
2022-11-22T09:02:29.123Z,4.43
2022-11-22T09:04:55.934Z,3.83
2022-11-22T09:10:09.621Z,4.00
2022-11-22T09:12:36.634Z,4.07
2022-11-22T09:15:04.214Z,3.90
2022-11-22T09:17:30.964Z,4.60
2022-11-22T09:19:57.790Z,4.30
2022-11-22T09:22:28.407Z,4.30
2022-11-22T09:24:55.562Z,4.03
2022-11-22T09:27:23.058Z,3.80
2022-11-22T09:29:50.572Z,4.10
2022-11-22T09:32:17.354Z,4.17
2022-11-22T09:34:44.190Z,4.03
2022-11-22T09:37:11.068Z,4.20
2022-11-22T09:39:37.914Z,5.10
2022-11-22T09:42:22.593Z,3.80
2022-11-22T09:45:21.998Z,4.53
2022-11-22T09:48:04.227Z,4.20
2022-11-22T09:50:53.746Z,4.10
2022-11-22T09:53:49.903Z,4.20
2022-11-22T09:56:20.736Z,4.60
2022-11-22T09:59:05.094Z,4.10
2022-11-22T10:01:43.998Z,4.33
2022-11-22T10:04:21.380Z,4.53
2022-11-22T10:06:59.292Z,4.40
2022-11-22T10:09:36.856Z,4.40
2022-11-22T10:12:13.096Z,4.77
2022-11-22T10:14:58.881Z,4.30
2022-11-22T10:17:45.720Z,4.23
2022-11-22T10:20:17.154Z,4.40
2022-11-22T10:22:44.425Z,3.80
2022-11-22T10:25:19.906Z,5.10
2022-11-22T10:28:10.011Z,3.70
2022-11-22T10:30:41.227Z,4.03
2022-11-22T10:33:37.866Z,3.83
2022-11-22T10:36:37.350Z,4.20
2022-11-22T10:39:40.269Z,5.03
2022-11-22T10:42:16.382Z,4.77
2022-11-22T10:45:07.867Z,4.70
2022-11-22T10:47:43.328Z,4.40
2022-11-22T10:50:16.675Z,4.30
2022-11-22T10:53:08.455Z,4.40
2022-11-22T10:56:17.891Z,5.10
2022-11-22T10:59:05.110Z,5.80
2022-11-22T11:01:46.649Z,6.63
2022-11-22T11:04:15.718Z,7.10
2022-11-22T11:07:10.918Z,5.13
2022-11-22T11:12:46.256Z,5.80
2022-11-22T11:15:15.917Z,5.23
2022-11-22T11:17:45.818Z,5.27
2022-11-22T11:20:26.846Z,5.57
2022-11-22T11:25:43.501Z,5.33
2022-11-22T11:28:18.907Z,6.20
2022-11-22T11:30:58.905Z,6.07
2022-11-22T11:33:38.344Z,5.60
2022-11-22T11:36:15.951Z,6.07
2022-11-22T11:38:42.666Z,5.90
2022-11-22T11:41:29.415Z,5.90
2022-11-22T11:44:05.865Z,5.30
2022-11-22T11:46:41.640Z,5.33
2022-11-22T11:49:14.288Z,6.07
2022-11-22T11:51:46.697Z,5.90
2022-11-22T11:54:19.866Z,5.80
2022-11-22T11:56:48.853Z,5.10
2022-11-22T11:59:40.159Z,5.60
2022-11-22T12:02:30.219Z,5.40
2022-11-22T12:05:04.844Z,5.80
2022-11-22T12:07:35.070Z,5.10
2022-11-22T12:10:23.523Z,5.80
2022-11-22T12:13:01.429Z,5.17
2022-11-22T12:15:56.187Z,4.87
2022-11-22T12:18:52.333Z,5.57
2022-11-22T12:21:50.046Z,5.87
2022-11-22T12:27:13.114Z,5.37
2022-11-22T12:29:46.391Z,4.80
2022-11-22T12:32:23.286Z,5.87
2022-11-22T12:34:55.801Z,4.60
2022-11-22T12:37:34.771Z,5.00
2022-11-22T12:40:21.953Z,5.20
2022-11-22T12:43:04.342Z,5.40
2022-11-22T12:45:43.642Z,5.00
2022-11-22T12:48:19.079Z,5.40
2022-11-22T12:50:51.026Z,4.90
2022-11-22T12:53:39.871Z,4.90
2022-11-22T12:56:15.552Z,5.93
2022-11-22T12:59:11.847Z,6.10
2022-11-22T13:01:41.588Z,5.30
2022-11-22T13:04:11.502Z,4.90
2022-11-22T13:07:12.165Z,4.80
2022-11-22T13:09:47.169Z,4.93
2022-11-22T13:12:17.642Z,5.20
2022-11-22T13:14:54.079Z,5.00
2022-11-22T13:17:23.703Z,5.07
2022-11-22T13:20:05.145Z,4.60
2022-11-22T13:22:49.787Z,4.90
2022-11-22T13:25:19.591Z,5.37
2022-11-22T13:27:50.273Z,5.13
2022-11-22T13:30:25.730Z,5.80
2022-11-22T13:32:55.311Z,5.40
2022-11-22T13:35:35.579Z,4.63
2022-11-22T13:38:14.460Z,5.30
2022-11-22T13:40:52.312Z,5.20
2022-11-22T13:43:22.653Z,5.60
2022-11-22T13:46:06.873Z,5.03
2022-11-22T13:48:39.772Z,5.50
2022-11-22T13:51:34.099Z,5.50
2022-11-22T13:54:32.263Z,4.47
2022-11-22T13:57:21.163Z,5.13
2022-11-22T13:59:48.026Z,4.90
2022-11-22T14:02:24.172Z,5.60
2022-11-22T14:04:55.812Z,5.10
2022-11-22T14:07:31.917Z,4.77
2022-11-22T14:10:01.106Z,5.70
2022-11-22T14:12:43.771Z,5.23
2022-11-22T14:15:19.812Z,5.17
2022-11-22T14:18:07.236Z,5.97
2022-11-22T14:21:01.460Z,5.30
2022-11-22T14:23:28.170Z,5.40
2022-11-22T14:26:11.483Z,5.20
2022-11-22T14:29:09.832Z,5.27
2022-11-22T14:31:37.346Z,5.37
2022-11-22T14:34:25.926Z,5.67
2022-11-22T14:37:10.859Z,5.93
2022-11-22T14:39:56.019Z,5.27
2022-11-22T14:42:40.032Z,5.33
2022-11-22T14:45:12.624Z,5.53
2022-11-22T14:47:52.798Z,5.60
2022-11-22T14:50:28.996Z,4.40
2022-11-22T14:53:18.908Z,5.00
2022-11-22T14:55:46.378Z,5.27
2022-11-22T14:58:20.679Z,5.77
2022-11-22T15:00:50.221Z,4.70
2022-11-22T15:03:35.376Z,5.23
2022-11-22T15:09:11.678Z,6.10
2022-11-22T15:09:52.547Z,4.67
2022-11-22T15:12:44.063Z,5.43
2022-11-22T15:57:21.085Z,5.03
2022-11-22T15:59:53.738Z,5.33
2022-11-22T16:02:23.244Z,5.40
2022-11-22T16:06:08.553Z,5.50
2022-11-22T16:07:48.685Z,5.53
2022-11-22T16:10:37.773Z,5.63
2022-11-22T16:13:21.046Z,5.70
2022-11-22T16:16:31.525Z,4.90
2022-11-22T16:19:21.315Z,5.33
2022-11-22T16:22:01.742Z,5.20
2022-11-22T16:24:32.273Z,5.60
2022-11-22T16:27:06.105Z,5.23
2022-11-22T16:29:35.723Z,5.07
2022-11-22T16:32:09.393Z,4.60
2022-11-22T16:34:36.278Z,5.50
2022-11-22T16:37:23.193Z,4.40
2022-11-22T16:39:49.955Z,4.67
2022-11-22T16:42:16.745Z,4.90
2022-11-22T16:44:43.583Z,4.83
2022-11-22T16:47:18.538Z,4.47
2022-11-22T16:49:46.864Z,5.37
2022-11-22T16:52:14.959Z,4.70
2022-11-22T16:54:41.983Z,4.90
2022-11-22T16:57:16.001Z,5.27
2022-11-22T16:59:42.775Z,4.53
2022-11-22T17:02:16.043Z,5.37
2022-11-22T17:04:46.053Z,4.90
2022-11-22T17:07:14.472Z,5.63
2022-11-22T17:09:41.853Z,5.40
2022-11-22T17:12:23.498Z,5.10
2022-11-22T17:14:51.095Z,5.23
2022-11-22T17:17:19.099Z,4.90
2022-11-22T17:19:53.330Z,5.70
2022-11-22T17:22:21.016Z,4.97
2022-11-22T17:24:47.833Z,5.07
2022-11-22T17:27:14.958Z,4.90
2022-11-22T17:30:28.422Z,5.10
2022-11-22T17:32:56.315Z,5.40
2022-11-22T17:35:23.141Z,5.20
2022-11-22T17:37:54.307Z,5.07
2022-11-22T17:40:21.299Z,6.07
2022-11-22T17:42:48.092Z,5.30
2022-11-22T17:45:15.016Z,5.20
2022-11-22T17:47:41.802Z,5.50
2022-11-22T17:50:09.084Z,5.30
2022-11-22T17:52:37.186Z,5.50
2022-11-22T17:55:06.889Z,4.87
2022-11-22T17:57:36.311Z,5.10
2022-11-22T18:00:07.027Z,4.97
2022-11-22T18:02:34.911Z,5.00
2022-11-22T18:05:05.807Z,4.37
2022-11-22T18:07:33.083Z,4.57
2022-11-22T18:09:59.967Z,4.50
2022-11-22T18:12:27.357Z,5.00
2022-11-22T18:14:54.343Z,4.70
2022-11-22T18:17:21.093Z,5.27
2022-11-22T18:19:47.948Z,4.87
2022-11-22T18:22:14.720Z,5.33
2022-11-22T18:24:41.522Z,4.40
2022-11-22T18:27:08.339Z,4.50
2022-11-22T18:29:42.123Z,4.10
2022-11-22T18:32:10.010Z,4.50
2022-11-22T18:34:37.004Z,5.50
2022-11-22T18:37:04.710Z,4.90
2022-11-22T18:39:38.034Z,5.23
2022-11-22T18:42:07.804Z,4.77
2022-11-22T18:44:34.960Z,4.70
2022-11-22T18:47:02.085Z,4.43
2022-11-22T18:49:29.194Z,5.00
2022-11-22T18:51:56.356Z,4.50
2022-11-22T18:54:23.491Z,5.00
2022-11-22T18:56:51.629Z,4.70
2022-11-22T18:59:18.856Z,4.90
2022-11-22T19:01:46.131Z,5.00
2022-11-22T19:04:15.427Z,5.00
2022-11-22T19:06:43.647Z,4.23
2022-11-22T19:09:11.181Z,4.23
2022-11-22T19:11:38.176Z,4.27
2022-11-22T19:14:05.087Z,4.60
2022-11-22T19:16:31.974Z,4.23
2022-11-22T19:18:59.583Z,4.80
2022-11-22T19:21:28.437Z,4.90
2022-11-22T19:23:56.601Z,4.63
2022-11-22T19:26:25.611Z,4.40
2022-11-22T19:28:55.748Z,4.73
2022-11-22T19:31:25.541Z,4.60
2022-11-22T19:33:52.319Z,4.20
2022-11-22T19:36:21.657Z,4.83
2022-11-22T19:38:49.517Z,5.37
2022-11-22T19:41:22.211Z,4.63
2022-11-22T19:43:50.373Z,4.20
2022-11-22T19:46:19.897Z,4.80
2022-11-22T19:48:53.955Z,4.10
2022-11-22T19:51:21.513Z,5.20
2022-11-22T19:53:48.886Z,4.37
2022-11-22T19:56:18.348Z,4.50
2022-11-22T19:58:50.496Z,4.87
2022-11-22T20:01:17.615Z,5.00
2022-11-22T20:03:45.076Z,10.43
2022-11-22T20:06:14.143Z,10.87
2022-11-22T20:08:41.435Z,11.90
2022-11-22T20:11:14.176Z,12.97
2022-11-22T20:13:43.408Z,12.87
2022-11-22T20:16:22.171Z,13.40
2022-11-22T20:19:00.447Z,12.40
2022-11-22T20:21:29.607Z,13.07
2022-11-22T20:23:56.971Z,14.40
2022-11-22T20:26:24.564Z,13.57
2022-11-22T20:29:00.093Z,12.97
2022-11-22T20:31:29.466Z,12.50
2022-11-22T20:33:57.737Z,13.57
2022-11-22T20:36:26.874Z,13.00
2022-11-22T20:38:54.517Z,12.80
2022-11-22T20:41:24.635Z,12.90
2022-11-22T20:43:52.982Z,13.23
2022-11-22T20:46:22.349Z,13.10
2022-11-22T20:49:05.069Z,13.57
2022-11-22T20:51:31.998Z,14.20
2022-11-22T20:53:58.784Z,13.97
2022-11-22T20:56:26.079Z,13.57
2022-11-22T20:58:53.397Z,13.43
2022-11-22T21:01:22.818Z,14.50
2022-11-22T21:03:49.735Z,14.40
2022-11-22T21:06:18.311Z,12.00
2022-11-22T21:08:47.994Z,13.20
2022-11-22T21:11:17.690Z,13.23
2022-11-22T21:13:45.761Z,13.13
2022-11-22T21:16:23.388Z,13.67
2022-11-22T21:18:56.279Z,15.13
2022-11-22T21:21:25.034Z,14.97
2022-11-22T21:23:57.102Z,15.03
2022-11-22T21:26:25.350Z,15.03
2022-11-22T21:28:52.985Z,15.53
2022-11-22T21:31:20.904Z,16.00
2022-11-22T21:33:48.382Z,14.53
2022-11-22T21:36:15.220Z,16.70
2022-11-22T21:38:42.023Z,14.20
2022-11-22T21:44:05.052Z,10.10
2022-11-22T21:46:31.846Z,9.27
2022-11-22T21:48:58.661Z,9.47
2022-11-22T21:51:26.431Z,9.40
2022-11-22T21:54:00.694Z,11.80
2022-11-22T21:56:28.654Z,11.20
2022-11-22T21:58:55.521Z,11.10
2022-11-22T22:01:23.171Z,11.23
2022-11-22T22:03:50.311Z,11.10
2022-11-22T22:06:17.327Z,10.50
2022-11-22T22:08:44.180Z,10.00
2022-11-22T22:11:11.658Z,9.70
2022-11-22T22:13:38.478Z,9.43
2022-11-22T22:16:07.292Z,9.80
2022-11-22T22:18:36.562Z,8.53
2022-11-22T22:21:08.417Z,7.53
2022-11-22T22:23:37.188Z,8.40
2022-11-22T22:26:06.770Z,7.40
2022-11-22T22:28:36.321Z,7.20
2022-11-22T22:31:10.009Z,7.70
2022-11-22T22:33:39.166Z,7.53
2022-11-22T22:36:07.086Z,6.67
2022-11-22T22:38:34.535Z,6.73
2022-11-22T22:41:03.567Z,7.30
2022-11-22T22:43:33.117Z,6.57
2022-11-22T22:46:09.781Z,7.20
2022-11-22T22:48:37.145Z,6.53
2022-11-22T22:51:09.385Z,7.10
2022-11-22T22:53:36.428Z,6.97
2022-11-22T22:56:03.952Z,5.73
2022-11-22T22:58:31.074Z,6.33
2022-11-22T23:01:25.982Z,6.83
2022-11-22T23:03:55.296Z,6.47
2022-11-22T23:06:23.056Z,6.27
2022-11-22T23:08:51.345Z,5.90
2022-11-22T23:11:23.042Z,6.30
2022-11-22T23:13:49.834Z,6.00
2022-11-22T23:16:16.709Z,5.60
2022-11-22T23:18:45.843Z,5.30
2022-11-22T23:21:15.547Z,6.03
2022-11-22T23:23:42.421Z,5.23
2022-11-22T23:26:11.553Z,5.70
2022-11-22T23:28:39.005Z,5.60
2022-11-22T23:31:14.478Z,5.60
2022-11-22T23:33:42.649Z,5.70
2022-11-22T23:36:17.713Z,4.90
2022-11-22T23:38:45.386Z,5.30
2022-11-22T23:41:17.014Z,5.20
2022-11-22T23:43:44.494Z,5.13
2022-11-22T23:46:16.115Z,4.80
2022-11-22T23:48:44.487Z,4.77
2022-11-22T23:51:11.443Z,4.50
2022-11-22T23:53:39.315Z,4.80
2022-11-22T23:56:11.667Z,4.40
2022-11-22T23:58:38.551Z,4.03
